createdAt,value
2023-07-15T00:02:07.867Z,2.37
2023-07-15T00:04:37.111Z,2.77
2023-07-15T00:07:07.434Z,2.63
2023-07-15T00:09:36.428Z,2.33
2023-07-15T00:12:06.999Z,2.27
2023-07-15T00:14:35.763Z,2.67
2023-07-15T00:17:04.783Z,2.37
2023-07-15T00:19:34.504Z,2.80
2023-07-15T00:22:03.991Z,2.50
2023-07-15T00:24:32.788Z,2.77
2023-07-15T00:27:01.278Z,2.70
2023-07-15T00:29:31.238Z,2.43
2023-07-15T00:31:59.696Z,2.50
2023-07-15T00:34:29.967Z,2.60
2023-07-15T00:36:58.488Z,2.13
2023-07-15T00:39:27.276Z,2.40
2023-07-15T00:41:58.523Z,2.47
2023-07-15T00:44:26.629Z,2.17
2023-07-15T00:47:23.179Z,3.13
2023-07-15T00:49:52.869Z,2.87
2023-07-15T00:52:23.346Z,2.80
2023-07-15T00:54:55.364Z,2.30
2023-07-15T00:57:27.953Z,2.33
2023-07-15T00:59:59.824Z,2.20
2023-07-15T01:02:31.681Z,2.93
2023-07-15T01:05:00.349Z,2.50
2023-07-15T01:07:30.110Z,2.30
2023-07-15T01:09:58.549Z,3.03
2023-07-15T01:12:27.517Z,2.20
2023-07-15T01:14:56.014Z,2.73
2023-07-15T01:17:26.206Z,2.53
2023-07-15T01:19:56.000Z,2.50
2023-07-15T01:22:24.931Z,2.70
2023-07-15T01:24:54.909Z,2.13
2023-07-15T01:27:27.857Z,2.60
2023-07-15T01:29:56.483Z,2.20
2023-07-15T01:32:26.172Z,2.90
2023-07-15T01:34:54.637Z,2.40
2023-07-15T01:37:23.251Z,2.33
2023-07-15T01:39:54.238Z,2.20
2023-07-15T01:42:22.761Z,2.50
2023-07-15T01:44:52.098Z,2.63
2023-07-15T01:47:21.537Z,2.40
2023-07-15T01:49:49.965Z,2.57
2023-07-15T01:52:18.432Z,2.07
2023-07-15T01:54:46.823Z,2.20
2023-07-15T01:57:16.763Z,2.70
2023-07-15T01:59:45.105Z,2.33
2023-07-15T02:02:13.723Z,2.50
2023-07-15T02:04:42.299Z,2.10
2023-07-15T02:07:10.730Z,2.77
2023-07-15T02:09:40.552Z,2.40
2023-07-15T02:12:10.266Z,2.50
2023-07-15T02:14:40.014Z,2.23
2023-07-15T02:17:09.485Z,2.90
2023-07-15T02:19:38.752Z,2.00
2023-07-15T02:22:08.151Z,2.27
2023-07-15T02:24:36.471Z,2.37
2023-07-15T02:27:05.571Z,2.33
2023-07-15T02:29:33.962Z,2.20
2023-07-15T02:32:04.531Z,1.87
2023-07-15T02:34:32.984Z,2.00
2023-07-15T02:37:01.533Z,2.40
2023-07-15T02:39:29.932Z,2.93
2023-07-15T02:41:58.310Z,2.33
2023-07-15T02:44:26.684Z,2.20
2023-07-15T02:46:55.199Z,2.40
2023-07-15T02:49:25.125Z,2.33
2023-07-15T02:51:53.595Z,2.37
2023-07-15T02:54:21.924Z,2.07
2023-07-15T02:56:51.757Z,2.43
2023-07-15T02:59:20.210Z,2.50
2023-07-15T03:01:49.947Z,2.47
2023-07-15T03:04:18.471Z,1.80
2023-07-15T03:06:48.194Z,2.70
2023-07-15T03:09:16.557Z,2.47
2023-07-15T03:11:45.844Z,2.30
2023-07-15T03:14:14.282Z,2.73
2023-07-15T03:16:42.821Z,2.23
2023-07-15T03:19:11.218Z,2.67
2023-07-15T03:21:40.628Z,2.10
2023-07-15T03:24:11.782Z,2.50
2023-07-15T03:26:41.401Z,2.30
2023-07-15T03:29:10.586Z,2.40
2023-07-15T03:31:42.566Z,2.37
2023-07-15T03:34:11.085Z,2.07
2023-07-15T03:36:39.502Z,2.30
2023-07-15T03:39:08.294Z,2.03
2023-07-15T03:41:38.732Z,2.10
2023-07-15T03:44:07.248Z,2.20
2023-07-15T03:46:35.822Z,2.17
2023-07-15T03:49:04.369Z,2.40
2023-07-15T03:51:32.963Z,2.17
2023-07-15T03:54:01.289Z,2.13
2023-07-15T03:56:30.216Z,1.90
2023-07-15T03:59:00.462Z,1.80
2023-07-15T04:01:29.069Z,1.90
2023-07-15T04:03:57.600Z,2.17
2023-07-15T04:06:26.241Z,2.37
2023-07-15T04:08:54.852Z,1.93
2023-07-15T04:11:23.327Z,2.00
2023-07-15T04:13:51.729Z,2.07
2023-07-15T04:16:21.672Z,2.13
2023-07-15T04:18:50.030Z,2.10
2023-07-15T04:21:18.422Z,2.27
2023-07-15T04:23:46.914Z,2.23
2023-07-15T04:26:15.658Z,2.20
2023-07-15T04:28:44.223Z,1.80
2023-07-15T04:31:12.637Z,2.33
2023-07-15T04:33:42.420Z,2.10
2023-07-15T04:36:10.925Z,2.30
2023-07-15T04:38:39.283Z,2.00
2023-07-15T04:41:08.062Z,1.83
2023-07-15T04:43:36.461Z,2.00
2023-07-15T04:46:05.384Z,1.83
2023-07-15T04:48:34.443Z,1.90
2023-07-15T04:51:04.555Z,2.40
2023-07-15T04:53:33.049Z,1.70
2023-07-15T04:56:03.681Z,1.90
2023-07-15T04:58:32.367Z,1.80
2023-07-15T05:01:00.864Z,2.00
2023-07-15T05:03:29.280Z,1.90
2023-07-15T05:05:57.731Z,1.67
2023-07-15T05:08:29.221Z,2.17
2023-07-15T05:10:58.941Z,2.00
2023-07-15T05:13:27.487Z,2.10
2023-07-15T05:15:57.751Z,1.83
2023-07-15T05:18:26.282Z,2.07
2023-07-15T05:20:54.664Z,1.60
2023-07-15T05:23:24.838Z,2.30
2023-07-15T05:25:56.518Z,2.17
2023-07-15T05:28:27.413Z,1.93
2023-07-15T05:30:55.866Z,2.17
2023-07-15T05:33:24.415Z,2.30
2023-07-15T05:35:54.096Z,1.87
2023-07-15T05:38:24.224Z,2.00
2023-07-15T05:40:52.762Z,1.80
2023-07-15T05:43:22.721Z,1.90
2023-07-15T05:45:51.132Z,1.97
2023-07-15T05:48:19.633Z,1.80
2023-07-15T05:50:48.326Z,2.13
2023-07-15T05:53:16.840Z,3.00
2023-07-15T05:55:45.212Z,2.10
2023-07-15T05:58:13.667Z,1.80
2023-07-15T06:00:43.521Z,2.20
2023-07-15T06:03:12.075Z,2.20
2023-07-15T06:05:40.555Z,2.50
2023-07-15T06:08:08.996Z,2.00
2023-07-15T06:10:37.481Z,2.10
2023-07-15T06:13:06.106Z,1.93
2023-07-15T06:15:36.449Z,2.10
2023-07-15T06:18:06.203Z,2.20
2023-07-15T06:20:34.735Z,2.17
2023-07-15T06:23:03.397Z,1.90
2023-07-15T06:25:31.729Z,1.87
2023-07-15T06:28:00.188Z,2.03
2023-07-15T06:30:29.163Z,2.03
2023-07-15T06:32:57.755Z,2.00
2023-07-15T06:35:27.899Z,1.80
2023-07-15T06:37:56.324Z,2.40
2023-07-15T06:40:24.930Z,1.97
2023-07-15T06:42:53.421Z,2.17
2023-07-15T06:45:23.121Z,2.20
2023-07-15T06:47:52.004Z,2.40
2023-07-15T06:50:20.704Z,2.63
2023-07-15T06:52:50.353Z,2.10
2023-07-15T06:55:19.707Z,2.00
2023-07-15T06:57:48.294Z,2.40
2023-07-15T07:00:17.033Z,2.57
2023-07-15T07:02:46.353Z,2.07
2023-07-15T07:05:18.039Z,2.77
2023-07-15T07:07:48.149Z,2.30
2023-07-15T07:10:18.337Z,3.00
2023-07-15T07:12:47.397Z,2.17
2023-07-15T07:15:15.812Z,2.13
2023-07-15T07:17:44.362Z,2.23
2023-07-15T07:20:13.397Z,2.03
2023-07-15T07:22:42.228Z,1.97
2023-07-15T07:25:11.866Z,2.20
2023-07-15T07:27:41.675Z,1.73
2023-07-15T07:30:10.814Z,2.00
2023-07-15T07:32:39.288Z,1.85
2023-07-15T07:35:08.919Z,1.63
2023-07-15T07:37:37.394Z,1.85
2023-07-15T07:40:06.490Z,1.60
2023-07-15T07:42:35.176Z,1.52
2023-07-15T07:45:14.329Z,2.30
2023-07-15T07:47:42.885Z,1.92
2023-07-15T07:50:12.251Z,2.25
2023-07-15T07:52:40.783Z,1.95
2023-07-15T07:55:10.002Z,2.38
2023-07-15T07:57:38.346Z,1.63
2023-07-15T08:00:10.393Z,1.50
2023-07-15T08:02:38.960Z,1.90
2023-07-15T08:05:09.816Z,2.30
2023-07-15T08:07:38.368Z,2.08
2023-07-15T08:10:08.345Z,2.47
2023-07-15T08:12:36.702Z,2.33
2023-07-15T08:15:08.649Z,2.30
2023-07-15T08:17:39.148Z,2.30
2023-07-15T08:20:09.863Z,1.92
2023-07-15T08:22:38.837Z,2.30
2023-07-15T08:25:08.011Z,1.75
2023-07-15T08:27:36.500Z,2.00
2023-07-15T08:30:05.447Z,2.08
2023-07-15T08:32:33.975Z,2.35
2023-07-15T08:35:05.677Z,2.17
2023-07-15T08:37:34.627Z,2.17
2023-07-15T08:40:03.585Z,1.80
2023-07-15T08:42:32.777Z,2.05
2023-07-15T08:45:01.368Z,2.40
2023-07-15T08:47:30.004Z,2.47
2023-07-15T08:50:01.632Z,2.22
2023-07-15T08:52:32.254Z,2.00
2023-07-15T08:55:01.774Z,1.90
2023-07-15T08:57:30.329Z,1.85
2023-07-15T08:59:59.692Z,1.92
2023-07-15T09:02:28.310Z,2.03
2023-07-15T09:04:56.849Z,1.80
2023-07-15T09:07:29.001Z,2.10
2023-07-15T09:10:06.530Z,2.10
2023-07-15T09:12:35.073Z,2.53
2023-07-15T09:15:03.429Z,1.80
2023-07-15T09:17:31.790Z,2.05
2023-07-15T09:20:01.356Z,2.08
2023-07-15T09:22:30.666Z,2.03
2023-07-15T09:25:06.304Z,1.77
2023-07-15T09:27:34.947Z,2.40
2023-07-15T09:30:03.405Z,1.88
2023-07-15T09:32:33.892Z,2.30
2023-07-15T09:35:02.356Z,1.52
2023-07-15T09:37:32.070Z,1.70
2023-07-15T09:40:02.288Z,2.25
2023-07-15T09:42:32.320Z,2.08
2023-07-15T09:45:01.539Z,1.88
2023-07-15T09:47:30.465Z,2.15
2023-07-15T09:49:58.994Z,1.70
2023-07-15T09:52:28.515Z,1.60
2023-07-15T09:54:57.818Z,1.73
2023-07-15T09:57:26.986Z,1.55
2023-07-15T09:59:58.435Z,2.03
2023-07-15T10:02:35.382Z,1.95
2023-07-15T10:05:05.933Z,1.65
2023-07-15T10:07:35.520Z,1.60
2023-07-15T10:10:06.739Z,1.85
2023-07-15T10:12:35.746Z,1.52
2023-07-15T10:15:08.642Z,1.58
2023-07-15T10:17:39.106Z,1.77
2023-07-15T10:20:11.710Z,1.50
2023-07-15T10:22:41.369Z,1.45
2023-07-15T10:25:11.705Z,1.92
2023-07-15T10:27:41.217Z,1.48
2023-07-15T10:30:19.302Z,0.88
2023-07-15T10:33:13.302Z,1.90
2023-07-15T10:35:50.614Z,1.45
2023-07-15T10:38:24.639Z,3.28
2023-07-15T10:40:54.567Z,2.55
2023-07-15T10:43:24.352Z,1.85
2023-07-15T10:45:55.408Z,2.00
2023-07-15T10:48:24.788Z,1.70
2023-07-15T10:50:54.591Z,1.77
2023-07-15T10:53:24.616Z,1.67
2023-07-15T10:55:57.273Z,1.70
2023-07-15T10:58:25.949Z,1.80
2023-07-15T11:01:01.909Z,1.50
2023-07-15T11:03:32.197Z,1.53
2023-07-15T11:06:02.990Z,1.90
2023-07-15T11:08:32.770Z,1.50
2023-07-15T11:11:02.545Z,1.70
2023-07-15T11:13:31.628Z,1.73
2023-07-15T11:16:01.551Z,1.50
2023-07-15T11:18:30.446Z,1.57
2023-07-15T11:21:00.113Z,1.40
2023-07-15T11:23:30.655Z,1.63
2023-07-15T11:26:00.170Z,1.73
2023-07-15T11:28:28.700Z,2.57
2023-07-15T11:30:57.179Z,1.63
2023-07-15T11:33:27.046Z,1.63
2023-07-15T11:35:55.462Z,1.60
2023-07-15T11:38:31.391Z,1.30
2023-07-15T11:41:01.929Z,1.88
2023-07-15T11:43:32.683Z,1.52
2023-07-15T11:46:02.578Z,1.40
2023-07-15T11:48:33.964Z,1.38
2023-07-15T11:51:07.655Z,1.38
2023-07-15T11:53:38.345Z,1.65
2023-07-15T11:56:07.701Z,1.52
2023-07-15T11:58:44.607Z,2.10
2023-07-15T12:01:15.126Z,1.83
2023-07-15T12:03:46.109Z,1.50
2023-07-15T12:06:16.071Z,1.88
2023-07-15T12:08:45.125Z,1.83
2023-07-15T12:11:19.198Z,1.30
2023-07-15T12:13:47.625Z,1.40
2023-07-15T12:16:19.148Z,1.75
2023-07-15T12:18:51.027Z,1.60
2023-07-15T12:21:19.597Z,1.50
2023-07-15T12:23:48.035Z,1.88
2023-07-15T12:26:16.764Z,1.50
2023-07-15T12:28:45.640Z,1.55
2023-07-15T12:31:14.881Z,1.27
2023-07-15T12:33:43.802Z,1.48
2023-07-15T12:36:15.362Z,1.55
2023-07-15T12:38:44.722Z,1.20
2023-07-15T12:41:14.265Z,1.13
2023-07-15T12:43:43.010Z,1.63
2023-07-15T12:46:11.708Z,1.42
2023-07-15T12:48:40.693Z,1.35
2023-07-15T12:51:09.275Z,1.23
2023-07-15T12:53:39.457Z,1.00
2023-07-15T12:56:12.813Z,1.48
2023-07-15T12:58:41.969Z,1.50
2023-07-15T13:01:10.751Z,1.10
2023-07-15T13:03:39.859Z,1.00
2023-07-15T13:06:08.428Z,1.25
2023-07-15T13:08:38.760Z,1.27
2023-07-15T13:11:08.292Z,1.40
2023-07-15T13:13:36.832Z,1.30
2023-07-15T13:16:06.612Z,1.20
2023-07-15T13:18:35.118Z,1.20
2023-07-15T13:21:03.713Z,1.30
2023-07-15T13:23:32.261Z,1.48
2023-07-15T13:26:02.614Z,1.80
2023-07-15T13:28:31.129Z,1.77
2023-07-15T13:30:59.647Z,1.52
2023-07-15T13:33:28.045Z,1.60
2023-07-15T13:35:57.168Z,1.60
2023-07-15T13:38:26.192Z,1.60
2023-07-15T13:40:54.918Z,1.90
2023-07-15T13:43:24.803Z,1.90
2023-07-15T13:45:53.293Z,1.70
2023-07-15T13:48:22.024Z,1.63
2023-07-15T13:50:50.583Z,1.70
2023-07-15T13:53:19.028Z,1.53
2023-07-15T13:55:47.446Z,1.55
2023-07-15T13:58:15.967Z,1.40
2023-07-15T14:00:46.338Z,1.67
2023-07-15T14:03:14.873Z,1.67
2023-07-15T14:05:43.350Z,1.80
2023-07-15T14:08:11.842Z,1.73
2023-07-15T14:10:40.211Z,1.60
2023-07-15T14:13:08.746Z,1.83
2023-07-15T14:15:37.273Z,2.10
2023-07-15T14:18:08.962Z,2.05
2023-07-15T14:20:37.745Z,1.85
2023-07-15T14:23:06.156Z,2.20
2023-07-15T14:25:34.557Z,1.90
2023-07-15T14:28:03.017Z,2.13
2023-07-15T14:30:31.445Z,2.00
2023-07-15T14:32:59.928Z,2.20
2023-07-15T14:35:30.051Z,1.98
2023-07-15T14:37:58.394Z,2.28
2023-07-15T14:40:26.967Z,2.08
2023-07-15T14:42:55.371Z,2.42
2023-07-15T14:45:24.032Z,2.97
2023-07-15T14:47:52.574Z,2.38
2023-07-15T14:50:21.239Z,2.58
2023-07-15T14:52:50.979Z,2.17
2023-07-15T14:55:19.572Z,2.83
2023-07-15T14:57:48.049Z,2.38
2023-07-15T15:00:16.846Z,2.22
2023-07-15T15:02:45.534Z,2.30
2023-07-15T15:05:13.998Z,2.60
2023-07-15T15:07:42.426Z,2.65
2023-07-15T15:10:12.514Z,2.55
2023-07-15T15:12:41.020Z,2.35
2023-07-15T15:15:10.511Z,2.38
2023-07-15T15:17:38.981Z,2.20
2023-07-15T15:20:08.776Z,2.78
2023-07-15T15:22:38.986Z,2.50
2023-07-15T15:25:08.020Z,2.50
2023-07-15T15:27:37.791Z,2.20
2023-07-15T15:30:10.032Z,2.20
2023-07-15T15:32:40.886Z,2.15
2023-07-15T15:35:09.938Z,2.53
2023-07-15T15:37:38.906Z,2.63
2023-07-15T15:40:09.044Z,1.88
2023-07-15T15:42:40.581Z,2.42
2023-07-15T15:45:11.581Z,2.30
2023-07-15T15:47:41.064Z,2.38
2023-07-15T15:50:10.489Z,2.50
2023-07-15T15:52:39.800Z,2.40
2023-07-15T15:55:09.093Z,2.55
2023-07-15T15:57:38.864Z,2.55
2023-07-15T16:00:08.841Z,2.65
2023-07-15T16:02:42.997Z,2.05
2023-07-15T16:05:11.920Z,2.67
2023-07-15T16:07:40.524Z,2.00
2023-07-15T16:10:09.533Z,2.00
2023-07-15T16:12:42.003Z,2.53
2023-07-15T16:15:11.626Z,2.33
2023-07-15T16:17:40.089Z,2.17
2023-07-15T16:20:09.526Z,2.15
2023-07-15T16:22:38.358Z,2.47
2023-07-15T16:25:07.931Z,2.47
2023-07-15T16:27:36.410Z,1.77
2023-07-15T16:30:07.322Z,2.05
2023-07-15T16:32:35.804Z,2.58
2023-07-15T16:35:05.275Z,2.28
2023-07-15T16:37:33.783Z,2.10
2023-07-15T16:40:02.429Z,2.28
2023-07-15T16:42:30.838Z,2.20
2023-07-15T16:44:59.332Z,2.08
2023-07-15T16:47:29.229Z,2.15
2023-07-15T16:49:57.764Z,2.70
2023-07-15T16:52:26.235Z,2.45
2023-07-15T16:54:54.677Z,1.90
2023-07-15T16:57:23.103Z,2.15
2023-07-15T16:59:51.597Z,2.03
2023-07-15T17:02:20.220Z,2.13
2023-07-15T17:04:50.038Z,2.00
2023-07-15T17:07:18.579Z,2.33
2023-07-15T17:09:47.145Z,2.47
2023-07-15T17:12:16.396Z,3.08
2023-07-15T17:14:44.870Z,2.22
2023-07-15T17:17:13.268Z,1.95
2023-07-15T17:19:41.634Z,2.17
2023-07-15T17:22:12.493Z,2.22
2023-07-15T17:24:40.983Z,2.22
2023-07-15T17:27:09.480Z,2.08
2023-07-15T17:29:38.044Z,1.80
2023-07-15T17:32:06.683Z,2.53
2023-07-15T17:34:35.247Z,1.95
2023-07-15T17:37:03.919Z,2.50
2023-07-15T17:39:33.876Z,2.40
2023-07-15T17:42:03.337Z,1.75
2023-07-15T17:44:32.008Z,2.10
2023-07-15T17:47:03.345Z,1.88
2023-07-15T17:49:31.946Z,2.10
2023-07-15T17:52:00.569Z,2.30
2023-07-15T17:54:29.303Z,1.73
2023-07-15T17:56:59.114Z,2.00
2023-07-15T17:59:27.529Z,2.08
2023-07-15T18:01:55.996Z,1.88
2023-07-15T18:04:24.359Z,2.40
2023-07-15T18:06:52.842Z,2.10
2023-07-15T18:09:21.312Z,2.72
2023-07-15T18:11:49.805Z,2.60
2023-07-15T18:14:19.557Z,2.10
2023-07-15T18:16:48.033Z,2.58
2023-07-15T18:19:16.522Z,2.30
2023-07-15T18:21:44.986Z,2.50
2023-07-15T18:24:13.490Z,2.50
2023-07-15T18:26:42.886Z,1.87
2023-07-15T18:29:12.377Z,3.33
2023-07-15T18:31:42.193Z,2.40
2023-07-15T18:34:23.307Z,2.77
2023-07-15T18:36:53.285Z,2.70
2023-07-15T18:39:21.715Z,3.20
2023-07-15T18:41:50.193Z,2.70
2023-07-15T18:44:18.519Z,2.80
2023-07-15T18:46:48.445Z,3.30
2023-07-15T18:49:16.887Z,3.60
2023-07-15T18:51:45.225Z,3.10
2023-07-15T18:54:13.661Z,2.93
2023-07-15T18:56:42.208Z,3.20
2023-07-15T18:59:10.940Z,3.40
2023-07-15T19:01:39.574Z,2.97
2023-07-15T19:04:09.487Z,3.00
2023-07-15T19:06:37.977Z,3.13
2023-07-15T19:09:06.405Z,3.03
2023-07-15T19:11:37.424Z,2.60
2023-07-15T19:14:06.303Z,2.10
2023-07-15T19:16:34.876Z,1.90
2023-07-15T19:19:03.277Z,1.70
2023-07-15T19:21:33.205Z,1.83
2023-07-15T19:24:02.437Z,1.80
2023-07-15T19:26:30.977Z,1.90
2023-07-15T19:28:59.515Z,1.50
2023-07-15T19:31:28.021Z,1.80
2023-07-15T19:33:58.069Z,1.87
2023-07-15T19:36:26.869Z,1.73
2023-07-15T19:38:56.967Z,2.00
2023-07-15T19:41:25.501Z,1.70
2023-07-15T19:43:53.995Z,1.63
2023-07-15T19:46:22.535Z,1.90
2023-07-15T19:48:50.988Z,1.73
2023-07-15T19:51:31.032Z,1.47
2023-07-15T19:54:09.152Z,1.37
2023-07-15T19:56:37.593Z,1.93
2023-07-15T19:59:07.296Z,1.57
2023-07-15T20:01:36.295Z,1.30
2023-07-15T20:04:04.865Z,1.30
2023-07-15T20:06:33.258Z,1.77
2023-07-15T20:09:01.643Z,1.67
2023-07-15T20:11:34.521Z,1.97
2023-07-15T20:14:02.973Z,1.70
2023-07-15T20:16:31.457Z,1.67
2023-07-15T20:18:59.887Z,1.70
2023-07-15T20:21:28.362Z,1.57
2023-07-15T20:23:56.900Z,1.80
2023-07-15T20:26:25.474Z,1.30
2023-07-15T20:28:55.406Z,1.73
2023-07-15T20:31:24.039Z,1.87
2023-07-15T20:33:52.508Z,2.03
2023-07-15T20:36:20.965Z,1.90
2023-07-15T20:38:49.445Z,1.70
2023-07-15T20:41:19.245Z,1.60
2023-07-15T20:43:47.895Z,1.80
2023-07-15T20:46:18.034Z,1.80
2023-07-15T20:48:46.828Z,1.70
2023-07-15T20:51:16.494Z,1.83
2023-07-15T20:53:45.068Z,2.10
2023-07-15T20:56:14.106Z,2.00
2023-07-15T20:58:42.766Z,2.17
2023-07-15T21:01:11.363Z,2.03
2023-07-15T21:03:41.290Z,1.60
2023-07-15T21:06:09.888Z,2.00
2023-07-15T21:08:38.403Z,2.13
2023-07-15T21:11:06.817Z,1.73
2023-07-15T21:13:35.259Z,1.90
2023-07-15T21:16:03.687Z,1.90
2023-07-15T21:18:35.938Z,2.00
2023-07-15T21:21:06.208Z,2.37
2023-07-15T21:23:34.783Z,2.00
2023-07-15T21:26:07.144Z,2.03
2023-07-15T21:28:38.147Z,1.87
2023-07-15T21:31:07.425Z,2.30
2023-07-15T21:33:36.028Z,1.97
2023-07-15T21:36:06.177Z,2.20
2023-07-15T21:38:34.679Z,2.33
2023-07-15T21:41:03.096Z,2.17
2023-07-15T21:43:31.592Z,2.60
2023-07-15T21:46:00.094Z,2.30
2023-07-15T21:48:28.453Z,2.13
2023-07-15T21:50:57.741Z,2.13
2023-07-15T21:53:27.572Z,2.50
2023-07-15T21:55:57.001Z,2.80
2023-07-15T21:58:25.505Z,2.40
2023-07-15T22:00:58.590Z,2.57
2023-07-15T22:03:27.748Z,2.50
2023-07-15T22:05:56.991Z,2.83
2023-07-15T22:08:25.597Z,2.37
2023-07-15T22:10:55.591Z,2.70
2023-07-15T22:13:24.104Z,2.73
2023-07-15T22:15:52.640Z,2.77
2023-07-15T22:18:38.568Z,2.60
2023-07-15T22:21:08.898Z,2.97
2023-07-15T22:23:37.228Z,3.00
2023-07-15T22:26:06.995Z,2.73
2023-07-15T22:28:35.374Z,2.63
2023-07-15T22:31:03.811Z,2.80
2023-07-15T22:33:32.493Z,2.70
2023-07-15T22:36:00.862Z,2.90
2023-07-15T22:38:29.223Z,2.77
2023-07-15T22:40:57.687Z,2.60
2023-07-15T22:43:27.428Z,3.00
2023-07-15T22:45:57.353Z,3.07
2023-07-15T22:48:27.334Z,3.17
2023-07-15T22:50:56.432Z,2.80
2023-07-15T22:53:25.589Z,2.80
2023-07-15T22:55:54.252Z,3.23
2023-07-15T22:58:22.937Z,2.90
2023-07-15T23:00:57.388Z,3.50
2023-07-15T23:03:26.722Z,2.87
2023-07-15T23:05:55.382Z,2.90
2023-07-15T23:08:24.011Z,3.10
2023-07-15T23:10:52.454Z,3.33
2023-07-15T23:13:21.080Z,3.27
2023-07-15T23:15:59.437Z,3.87
2023-07-15T23:18:32.922Z,3.80
2023-07-15T23:21:01.292Z,3.70
2023-07-15T23:23:29.628Z,3.63
2023-07-15T23:25:57.998Z,3.53
2023-07-15T23:28:26.298Z,4.50
2023-07-15T23:30:54.832Z,4.30
2023-07-15T23:33:23.317Z,4.57
2023-07-15T23:35:53.496Z,5.17
2023-07-15T23:38:21.807Z,3.80
2023-07-15T23:40:50.598Z,4.53
2023-07-15T23:43:19.019Z,4.73
2023-07-15T23:45:47.380Z,4.53
2023-07-15T23:48:15.913Z,4.10
2023-07-15T23:50:44.285Z,3.73
2023-07-15T23:53:15.290Z,4.27
2023-07-15T23:55:43.670Z,4.10
2023-07-15T23:58:12.098Z,4.00
